createdAt,value
2022-12-25T00:01:25.098Z,4.25
2022-12-25T00:03:52.371Z,3.25
2022-12-25T00:06:19.336Z,3.92
2022-12-25T00:08:45.994Z,3.78
2022-12-25T00:11:15.580Z,3.58
2022-12-25T00:13:42.670Z,3.85
2022-12-25T00:16:19.390Z,3.55
2022-12-25T00:18:46.160Z,3.70
2022-12-25T00:21:12.799Z,3.47
2022-12-25T00:23:39.913Z,3.38
2022-12-25T00:26:08.525Z,3.17
2022-12-25T00:28:36.169Z,3.40
2022-12-25T00:31:11.577Z,3.35
2022-12-25T00:36:06.768Z,2.92
2022-12-25T00:38:34.576Z,3.00
2022-12-25T00:41:08.252Z,2.78
2022-12-25T00:43:34.807Z,3.17
2022-12-25T00:46:03.841Z,3.22
2022-12-25T00:48:31.166Z,3.30
2022-12-25T00:51:01.698Z,3.60
2022-12-25T00:53:28.986Z,3.20
2022-12-25T00:55:58.866Z,2.45
2022-12-25T00:58:26.847Z,2.60
2022-12-25T01:00:53.360Z,3.10
2022-12-25T01:03:20.104Z,2.83
2022-12-25T01:05:55.903Z,2.85
2022-12-25T01:08:22.390Z,3.40
2022-12-25T01:10:57.722Z,2.92
2022-12-25T01:13:25.187Z,2.60
2022-12-25T01:15:54.702Z,3.00
2022-12-25T01:18:23.463Z,2.80
2022-12-25T01:20:50.119Z,2.42
2022-12-25T01:23:16.972Z,2.60
2022-12-25T01:25:43.773Z,3.08
2022-12-25T01:28:10.337Z,2.83
2022-12-25T01:30:36.819Z,2.70
2022-12-25T01:33:04.480Z,2.88
2022-12-25T01:35:31.001Z,2.63
2022-12-25T01:37:57.514Z,2.50
2022-12-25T01:40:23.964Z,2.80
2022-12-25T01:42:50.496Z,2.30
2022-12-25T01:45:43.529Z,2.33
2022-12-25T01:48:14.664Z,2.30
2022-12-25T01:50:45.928Z,2.00
2022-12-25T01:53:12.752Z,2.30
2022-12-25T01:55:41.552Z,2.58
2022-12-25T01:58:08.189Z,2.10
2022-12-25T02:00:34.819Z,2.33
2022-12-25T02:03:01.491Z,2.13
2022-12-25T02:05:33.457Z,2.42
2022-12-25T02:08:06.292Z,2.45
2022-12-25T02:10:32.861Z,2.05
2022-12-25T02:13:00.607Z,2.60
2022-12-25T02:15:34.405Z,2.00
2022-12-25T02:18:16.140Z,2.08
2022-12-25T02:20:51.892Z,2.30
2022-12-25T02:23:40.031Z,2.20
2022-12-25T02:26:38.277Z,2.17
2022-12-25T02:29:32.966Z,2.15
2022-12-25T02:32:07.902Z,1.90
2022-12-25T02:34:47.439Z,1.85
2022-12-25T02:37:19.477Z,1.73
2022-12-25T02:40:04.441Z,2.13
2022-12-25T02:43:02.467Z,2.63
2022-12-25T02:45:59.565Z,2.58
2022-12-25T02:48:48.612Z,1.63
2022-12-25T02:51:36.286Z,1.90
2022-12-25T02:57:12.690Z,2.00
2022-12-25T03:00:01.617Z,2.03
2022-12-25T03:02:49.693Z,2.10
2022-12-25T03:05:40.588Z,2.30
2022-12-25T03:08:13.779Z,1.95
2022-12-25T03:11:04.963Z,1.98
2022-12-25T03:13:37.558Z,1.98
2022-12-25T03:16:23.006Z,2.08
2022-12-25T03:18:49.573Z,1.90
2022-12-25T03:21:34.708Z,2.30
2022-12-25T03:24:20.559Z,2.05
2022-12-25T03:26:55.923Z,2.10
2022-12-25T03:32:08.467Z,2.08
2022-12-25T03:35:03.431Z,2.50
2022-12-25T03:38:02.816Z,2.15
2022-12-25T03:40:58.054Z,1.92
2022-12-25T03:43:46.822Z,1.67
2022-12-25T03:46:35.653Z,1.98
2022-12-25T03:50:00.556Z,1.90
2022-12-25T03:52:47.133Z,2.20
2022-12-25T03:55:35.456Z,2.10
2022-12-25T03:58:20.462Z,2.53
2022-12-25T04:01:05.900Z,1.85
2022-12-25T04:03:50.705Z,1.70
2022-12-25T04:06:35.945Z,2.05
2022-12-25T04:09:20.800Z,1.92
2022-12-25T04:12:05.871Z,2.20
2022-12-25T04:14:50.797Z,1.80
2022-12-25T04:17:35.953Z,2.08
2022-12-25T04:20:21.157Z,1.73
2022-12-25T04:23:06.102Z,1.83
2022-12-25T04:25:50.988Z,1.55
2022-12-25T04:28:35.614Z,1.70
2022-12-25T04:31:20.763Z,1.70
2022-12-25T04:34:05.575Z,1.63
2022-12-25T04:36:32.015Z,1.88
2022-12-25T04:38:58.431Z,1.80
2022-12-25T04:41:24.845Z,1.85
2022-12-25T04:43:51.271Z,2.10
2022-12-25T04:46:17.720Z,1.63
2022-12-25T04:48:44.288Z,1.95
2022-12-25T04:51:11.971Z,2.15
2022-12-25T04:53:38.462Z,1.70
2022-12-25T04:56:05.625Z,1.60
2022-12-25T04:58:32.615Z,1.77
2022-12-25T05:01:01.176Z,1.75
2022-12-25T05:03:28.501Z,1.60
2022-12-25T05:05:55.402Z,1.50
2022-12-25T05:08:22.473Z,1.52
2022-12-25T05:10:49.265Z,1.73
2022-12-25T05:13:16.253Z,1.70
2022-12-25T05:15:43.463Z,1.67
2022-12-25T05:18:10.201Z,1.58
2022-12-25T05:20:40.305Z,1.63
2022-12-25T05:23:07.402Z,1.70
2022-12-25T05:25:33.881Z,1.98
2022-12-25T05:28:00.372Z,1.48
2022-12-25T05:30:26.814Z,1.83
2022-12-25T05:32:53.239Z,1.67
2022-12-25T05:35:19.671Z,1.15
2022-12-25T05:37:46.149Z,1.42
2022-12-25T05:40:12.779Z,1.23
2022-12-25T05:42:39.204Z,1.88
2022-12-25T05:45:06.597Z,1.35
2022-12-25T05:47:33.108Z,1.60
2022-12-25T05:49:59.674Z,1.77
2022-12-25T05:52:26.230Z,1.50
2022-12-25T05:54:52.656Z,1.30
2022-12-25T05:57:19.132Z,2.17
2022-12-25T05:59:45.642Z,1.35
2022-12-25T06:02:12.150Z,1.30
2022-12-25T06:04:38.709Z,1.58
2022-12-25T06:07:05.139Z,1.45
2022-12-25T06:09:31.564Z,1.65
2022-12-25T06:11:58.035Z,1.52
2022-12-25T06:14:25.070Z,1.52
2022-12-25T06:16:53.057Z,1.77
2022-12-25T06:19:20.639Z,1.35
2022-12-25T06:21:47.300Z,1.27
2022-12-25T06:24:20.853Z,1.55
2022-12-25T06:26:47.911Z,1.40
2022-12-25T06:29:14.627Z,1.67
2022-12-25T06:31:41.108Z,1.60
2022-12-25T06:34:08.424Z,1.20
2022-12-25T06:36:37.491Z,1.55
2022-12-25T06:39:04.264Z,1.40
2022-12-25T06:41:31.231Z,1.38
2022-12-25T06:43:59.458Z,1.50
2022-12-25T06:46:27.800Z,1.52
2022-12-25T06:48:54.621Z,1.40
2022-12-25T06:51:27.362Z,1.52
2022-12-25T06:53:54.688Z,1.40
2022-12-25T06:56:24.861Z,1.17
2022-12-25T06:58:54.276Z,1.48
2022-12-25T07:01:27.626Z,1.52
2022-12-25T07:04:00.263Z,1.52
2022-12-25T07:06:26.774Z,1.40
2022-12-25T07:08:53.294Z,1.58
2022-12-25T07:11:20.845Z,1.33
2022-12-25T07:13:47.691Z,1.40
2022-12-25T07:16:15.025Z,1.30
2022-12-25T07:18:41.606Z,1.20
2022-12-25T07:21:09.970Z,1.45
2022-12-25T07:23:36.537Z,1.70
2022-12-25T07:26:03.596Z,1.50
2022-12-25T07:28:31.135Z,1.40
2022-12-25T07:31:02.973Z,1.50
2022-12-25T07:33:29.759Z,0.88
2022-12-25T07:35:56.237Z,1.10
2022-12-25T07:38:22.707Z,0.95
2022-12-25T07:40:50.075Z,1.00
2022-12-25T07:43:16.779Z,1.20
2022-12-25T07:45:43.250Z,0.93
2022-12-25T07:48:16.312Z,1.63
2022-12-25T07:50:43.329Z,0.95
2022-12-25T07:53:09.837Z,1.00
2022-12-25T07:55:36.308Z,0.95
2022-12-25T07:58:02.783Z,0.95
2022-12-25T08:00:32.713Z,1.00
2022-12-25T08:02:59.930Z,1.85
2022-12-25T08:05:26.876Z,1.30
2022-12-25T08:07:57.728Z,1.27
2022-12-25T08:10:25.278Z,1.40
2022-12-25T08:12:52.046Z,0.95
2022-12-25T08:15:18.594Z,1.55
2022-12-25T08:17:45.159Z,1.38
2022-12-25T08:20:11.973Z,1.38
2022-12-25T08:22:38.487Z,1.40
2022-12-25T08:25:05.108Z,1.20
2022-12-25T08:27:31.578Z,1.02
2022-12-25T08:29:58.074Z,1.50
2022-12-25T08:32:24.557Z,1.30
2022-12-25T08:34:51.016Z,1.60
2022-12-25T08:37:17.603Z,1.55
2022-12-25T08:39:44.124Z,1.60
2022-12-25T08:42:10.565Z,1.58
2022-12-25T08:44:37.013Z,1.38
2022-12-25T08:47:03.524Z,1.30
2022-12-25T08:49:30.042Z,1.38
2022-12-25T08:51:56.735Z,1.45
2022-12-25T08:54:24.738Z,2.83
2022-12-25T08:56:51.198Z,2.08
2022-12-25T08:59:17.733Z,1.80
2022-12-25T09:01:44.276Z,2.08
2022-12-25T09:04:10.805Z,1.65
2022-12-25T09:06:37.250Z,2.05
2022-12-25T09:09:03.822Z,1.50
2022-12-25T09:11:30.267Z,1.70
2022-12-25T09:13:56.688Z,1.30
2022-12-25T09:16:23.497Z,2.30
2022-12-25T09:18:50.045Z,1.65
2022-12-25T09:21:17.433Z,1.73
2022-12-25T09:23:44.468Z,1.80
2022-12-25T09:26:14.272Z,1.75
2022-12-25T09:28:46.588Z,1.75
2022-12-25T09:31:17.061Z,1.73
2022-12-25T09:33:43.610Z,1.70
2022-12-25T09:36:11.021Z,1.38
2022-12-25T09:38:37.524Z,1.50
2022-12-25T09:41:22.470Z,1.40
2022-12-25T09:43:55.726Z,1.50
2022-12-25T09:46:33.178Z,1.70
2022-12-25T09:49:07.478Z,1.40
2022-12-25T09:51:39.598Z,1.20
2022-12-25T09:54:32.055Z,1.65
2022-12-25T09:56:58.602Z,1.73
2022-12-25T09:59:27.291Z,2.22
2022-12-25T10:02:01.953Z,2.03
2022-12-25T10:04:43.874Z,2.10
2022-12-25T10:07:32.253Z,2.17
2022-12-25T10:10:22.085Z,1.88
2022-12-25T10:13:10.748Z,1.90
2022-12-25T10:16:25.147Z,2.10
2022-12-25T10:18:51.578Z,2.15
2022-12-25T10:21:19.135Z,1.83
2022-12-25T10:23:59.682Z,1.98
2022-12-25T10:26:27.037Z,1.92
2022-12-25T10:29:13.737Z,2.17
2022-12-25T10:31:41.951Z,1.90
2022-12-25T10:34:12.819Z,2.20
2022-12-25T10:36:41.158Z,2.20
2022-12-25T10:39:07.905Z,2.15
2022-12-25T10:41:59.114Z,1.83
2022-12-25T10:44:25.858Z,1.73
2022-12-25T10:46:57.930Z,1.98
2022-12-25T10:49:29.934Z,1.73
2022-12-25T10:51:56.471Z,1.95
2022-12-25T10:54:24.599Z,1.90
2022-12-25T10:57:09.293Z,1.85
2022-12-25T10:59:43.015Z,1.65
2022-12-25T11:02:19.909Z,1.65
2022-12-25T11:04:47.019Z,1.90
2022-12-25T11:07:19.474Z,1.88
2022-12-25T11:09:51.826Z,2.05
2022-12-25T11:12:20.851Z,3.50
2022-12-25T11:14:55.299Z,2.20
2022-12-25T11:17:24.210Z,2.30
2022-12-25T11:19:59.482Z,1.70
2022-12-25T11:24:53.106Z,2.53
2022-12-25T11:27:29.162Z,1.60
2022-12-25T11:30:07.867Z,1.92
2022-12-25T11:33:00.934Z,2.00
2022-12-25T11:35:31.560Z,2.30
2022-12-25T11:37:58.114Z,1.80
2022-12-25T11:40:29.448Z,2.13
2022-12-25T11:43:19.827Z,1.90
2022-12-25T11:45:55.952Z,2.40
2022-12-25T11:48:28.291Z,2.20
2022-12-25T11:50:59.259Z,3.17
2022-12-25T11:53:34.971Z,3.13
2022-12-25T11:56:16.004Z,2.72
2022-12-25T11:58:47.070Z,3.15
2022-12-25T12:01:34.893Z,2.47
2022-12-25T12:04:03.626Z,2.05
2022-12-25T12:06:43.067Z,2.20
2022-12-25T12:09:34.493Z,2.13
2022-12-25T12:12:26.813Z,1.92
2022-12-25T12:15:08.967Z,2.00
2022-12-25T12:17:35.641Z,1.92
2022-12-25T12:20:13.805Z,2.10
2022-12-25T12:22:50.089Z,2.13
2022-12-25T12:25:18.767Z,2.13
2022-12-25T12:27:45.548Z,2.20
2022-12-25T12:30:38.608Z,2.10
2022-12-25T12:33:07.899Z,1.70
2022-12-25T12:35:39.830Z,2.15
2022-12-25T12:38:13.443Z,2.25
2022-12-25T12:40:44.257Z,2.10
2022-12-25T12:43:45.608Z,2.10
2022-12-25T12:46:28.032Z,2.00
2022-12-25T12:49:21.700Z,2.05
2022-12-25T12:51:48.283Z,3.42
2022-12-25T12:54:33.302Z,3.40
2022-12-25T12:56:59.776Z,3.20
2022-12-25T12:59:33.134Z,3.00
2022-12-25T13:02:37.330Z,2.47
2022-12-25T13:05:13.905Z,2.22
2022-12-25T13:07:58.825Z,2.47
2022-12-25T13:10:32.918Z,2.22
2022-12-25T13:13:12.711Z,2.35
2022-12-25T13:15:39.564Z,2.67
2022-12-25T13:18:09.904Z,2.42
2022-12-25T13:20:46.124Z,1.70
2022-12-25T13:23:24.498Z,2.13
2022-12-25T13:26:00.005Z,2.78
2022-12-25T13:28:35.264Z,2.75
2022-12-25T13:33:45.081Z,2.22
2022-12-25T13:36:13.601Z,2.83
2022-12-25T13:38:50.903Z,2.80
2022-12-25T13:41:45.258Z,3.10
2022-12-25T13:44:19.579Z,2.08
2022-12-25T13:46:46.449Z,2.30
2022-12-25T13:49:24.432Z,2.20
2022-12-25T13:51:51.538Z,2.38
2022-12-25T13:54:18.981Z,2.22
2022-12-25T13:56:50.469Z,2.60
2022-12-25T13:59:19.998Z,2.40
2022-12-25T14:01:47.685Z,2.33
2022-12-25T14:04:20.233Z,2.35
2022-12-25T14:06:48.524Z,2.60
2022-12-25T14:09:16.108Z,2.40
2022-12-25T14:11:48.269Z,2.28
2022-12-25T14:14:19.274Z,2.85
2022-12-25T14:16:50.148Z,2.30
2022-12-25T14:19:27.757Z,2.30
2022-12-25T14:22:00.110Z,2.55
2022-12-25T14:24:27.965Z,2.40
2022-12-25T14:27:00.533Z,2.83
2022-12-25T14:29:32.526Z,2.50
2022-12-25T14:32:00.570Z,2.30
2022-12-25T14:34:29.399Z,3.08
2022-12-25T14:36:56.647Z,2.97
2022-12-25T14:39:35.073Z,2.78
2022-12-25T14:42:12.067Z,2.78
2022-12-25T14:44:40.265Z,3.00
2022-12-25T14:47:15.722Z,3.30
2022-12-25T14:49:43.108Z,3.30
2022-12-25T14:52:42.178Z,2.95
2022-12-25T14:55:19.358Z,4.20
2022-12-25T14:57:50.108Z,4.90
2022-12-25T15:00:22.846Z,3.97
2022-12-25T15:02:51.479Z,2.83
2022-12-25T15:05:30.437Z,3.38
2022-12-25T15:08:02.562Z,3.10
2022-12-25T15:10:59.079Z,2.80
2022-12-25T15:13:18.536Z,3.75
2022-12-25T15:16:14.468Z,3.33
2022-12-25T15:18:44.133Z,3.20
2022-12-25T15:21:15.821Z,3.17
2022-12-25T15:23:42.459Z,3.38
2022-12-25T15:26:15.899Z,3.95
2022-12-25T15:28:42.492Z,3.63
2022-12-25T15:31:20.954Z,4.07
2022-12-25T15:33:48.572Z,3.95
2022-12-25T15:36:15.331Z,3.42
2022-12-25T15:38:41.835Z,3.58
2022-12-25T15:41:54.433Z,3.83
2022-12-25T15:44:21.340Z,3.22
2022-12-25T15:46:48.249Z,3.30
2022-12-25T15:49:16.198Z,3.38
2022-12-25T15:51:43.921Z,4.05
2022-12-25T15:54:11.196Z,3.67
2022-12-25T15:56:44.618Z,3.30
2022-12-25T15:59:16.263Z,3.55
2022-12-25T16:01:47.226Z,3.40
2022-12-25T16:04:14.025Z,3.17
2022-12-25T16:06:40.821Z,3.03
2022-12-25T16:09:09.031Z,3.50
2022-12-25T16:11:35.493Z,3.78
2022-12-25T16:14:01.972Z,3.30
2022-12-25T16:16:28.621Z,3.38
2022-12-25T16:18:55.111Z,3.28
2022-12-25T16:21:22.282Z,3.95
2022-12-25T16:23:49.043Z,3.88
2022-12-25T16:26:15.920Z,4.68
2022-12-25T16:28:42.483Z,4.30
2022-12-25T16:31:09.048Z,4.70
2022-12-25T16:33:35.580Z,3.90
2022-12-25T16:36:02.095Z,4.03
2022-12-25T16:38:28.590Z,4.38
2022-12-25T16:40:57.707Z,3.95
2022-12-25T16:43:24.571Z,4.05
2022-12-25T16:45:51.316Z,4.57
2022-12-25T16:48:17.917Z,4.57
2022-12-25T16:50:44.489Z,3.83
2022-12-25T16:53:12.421Z,4.03
2022-12-25T16:55:38.971Z,4.80
2022-12-25T16:58:06.356Z,4.57
2022-12-25T17:00:32.834Z,4.25
2022-12-25T17:03:00.730Z,4.28
2022-12-25T17:05:27.717Z,4.15
2022-12-25T17:07:54.229Z,3.72
2022-12-25T17:10:21.371Z,4.20
2022-12-25T17:12:48.177Z,3.95
2022-12-25T17:15:14.829Z,3.85
2022-12-25T17:17:41.737Z,4.15
2022-12-25T17:20:08.872Z,4.38
2022-12-25T17:22:35.373Z,4.20
2022-12-25T17:25:01.984Z,4.60
2022-12-25T17:27:28.580Z,4.78
2022-12-25T17:29:55.105Z,3.85
2022-12-25T17:32:21.626Z,3.92
2022-12-25T17:34:48.209Z,3.78
2022-12-25T17:37:14.754Z,3.88
2022-12-25T17:39:41.244Z,3.85
2022-12-25T17:42:07.741Z,3.55
2022-12-25T17:44:34.331Z,4.25
2022-12-25T17:47:00.841Z,3.80
2022-12-25T17:49:27.610Z,3.70
2022-12-25T17:51:54.309Z,4.40
2022-12-25T17:54:20.907Z,3.88
2022-12-25T17:56:47.992Z,3.83
2022-12-25T17:59:18.491Z,3.95
2022-12-25T18:01:46.848Z,3.60
2022-12-25T18:04:13.821Z,3.60
2022-12-25T18:06:40.576Z,3.47
2022-12-25T18:09:07.639Z,3.67
2022-12-25T18:11:37.647Z,3.42
2022-12-25T18:14:05.894Z,3.00
2022-12-25T18:16:34.739Z,2.92
2022-12-25T18:19:01.941Z,2.83
2022-12-25T18:21:28.984Z,3.13
2022-12-25T18:23:55.918Z,3.42
2022-12-25T18:26:23.253Z,3.47
2022-12-25T18:28:50.362Z,3.30
2022-12-25T18:31:20.861Z,3.03
2022-12-25T18:33:48.546Z,3.35
2022-12-25T18:36:18.124Z,3.33
2022-12-25T18:38:44.863Z,3.70
2022-12-25T18:41:11.920Z,3.85
2022-12-25T18:43:54.095Z,4.00
2022-12-25T18:46:24.205Z,3.50
2022-12-25T18:48:51.433Z,2.90
2022-12-25T18:51:18.038Z,3.50
2022-12-25T18:53:44.755Z,3.30
2022-12-25T18:56:15.606Z,3.55
2022-12-25T18:58:43.299Z,3.70
2022-12-25T19:01:20.167Z,3.13
2022-12-25T19:03:48.914Z,3.15
2022-12-25T19:06:21.580Z,3.00
2022-12-25T19:08:48.603Z,3.05
2022-12-25T19:11:39.076Z,3.08
2022-12-25T19:14:10.804Z,3.67
2022-12-25T19:16:37.440Z,3.20
2022-12-25T19:19:04.114Z,3.42
2022-12-25T19:21:30.693Z,3.60
2022-12-25T19:23:57.239Z,3.17
2022-12-25T19:26:23.710Z,3.45
2022-12-25T19:28:50.159Z,3.45
2022-12-25T19:31:16.786Z,3.67
2022-12-25T19:33:43.378Z,3.42
2022-12-25T19:36:12.814Z,3.92
2022-12-25T19:38:39.699Z,3.50
2022-12-25T19:41:14.875Z,4.50
2022-12-25T19:43:42.858Z,3.97
2022-12-25T19:46:17.791Z,3.67
2022-12-25T19:48:46.252Z,3.50
2022-12-25T19:51:23.306Z,3.17
2022-12-25T19:53:50.611Z,2.45
2022-12-25T19:56:17.344Z,3.05
2022-12-25T19:58:44.767Z,3.08
2022-12-25T20:01:17.565Z,2.63
2022-12-25T20:03:46.390Z,3.10
2022-12-25T20:06:19.906Z,2.97
2022-12-25T20:08:47.417Z,2.67
2022-12-25T20:11:14.140Z,2.88
2022-12-25T20:13:40.680Z,2.70
2022-12-25T20:16:09.086Z,2.95
2022-12-25T20:18:37.115Z,2.90
2022-12-25T20:21:06.702Z,2.67
2022-12-25T20:23:33.872Z,2.85
2022-12-25T20:26:01.945Z,3.28
2022-12-25T20:28:29.024Z,2.65
2022-12-25T20:30:56.439Z,3.40
2022-12-25T20:33:23.516Z,2.75
2022-12-25T20:35:50.921Z,2.72
2022-12-25T20:38:17.422Z,3.00
2022-12-25T20:41:24.440Z,3.05
2022-12-25T20:43:30.919Z,2.95
2022-12-25T20:45:57.869Z,3.00
2022-12-25T20:48:24.811Z,2.55
2022-12-25T20:50:52.087Z,2.70
2022-12-25T20:53:19.676Z,3.00
2022-12-25T20:55:47.272Z,3.00
2022-12-25T20:58:15.363Z,3.03
2022-12-25T21:00:43.592Z,4.00
2022-12-25T21:03:12.071Z,3.72
2022-12-25T21:05:49.790Z,3.55
2022-12-25T21:08:22.424Z,3.22
2022-12-25T21:10:52.464Z,3.17
2022-12-25T21:13:25.296Z,3.13
2022-12-25T21:15:52.727Z,2.95
2022-12-25T21:18:21.928Z,2.95
2022-12-25T21:23:17.637Z,3.17
2022-12-25T21:25:45.405Z,3.50
2022-12-25T21:28:12.579Z,2.97
2022-12-25T21:30:39.593Z,3.10
2022-12-25T21:33:24.844Z,3.35
2022-12-25T21:35:51.567Z,3.33
2022-12-25T21:38:18.151Z,2.60
2022-12-25T21:40:44.810Z,2.83
2022-12-25T21:43:14.276Z,3.10
2022-12-25T21:45:40.952Z,3.60
2022-12-25T21:48:07.726Z,3.30
2022-12-25T21:50:53.089Z,3.38
2022-12-25T21:53:20.786Z,3.08
2022-12-25T21:56:05.786Z,3.55
2022-12-25T21:58:32.399Z,4.13
2022-12-25T22:01:05.435Z,2.75
2022-12-25T22:03:32.091Z,3.30
2022-12-25T22:06:21.453Z,2.72
2022-12-25T22:08:48.649Z,2.25
2022-12-25T22:11:33.724Z,2.33
2022-12-25T22:14:18.935Z,2.75
2022-12-25T22:17:24.697Z,2.50
2022-12-25T22:19:51.329Z,1.73
2022-12-25T22:22:24.238Z,2.72
2022-12-25T22:24:52.726Z,2.40
2022-12-25T22:27:19.478Z,1.65
2022-12-25T22:29:46.251Z,2.50
2022-12-25T22:32:13.952Z,2.10
2022-12-25T22:34:40.897Z,2.20
2022-12-25T22:37:10.437Z,2.15
2022-12-25T22:39:37.082Z,2.33
2022-12-25T22:42:03.651Z,2.03
2022-12-25T22:44:31.559Z,2.08
2022-12-25T22:46:58.354Z,2.10
2022-12-25T22:49:25.870Z,2.15
2022-12-25T22:51:53.166Z,2.20
2022-12-25T22:54:21.673Z,2.45
2022-12-25T22:56:51.588Z,1.95
2022-12-25T22:59:20.235Z,1.80
2022-12-25T23:01:46.848Z,1.50
2022-12-25T23:04:13.430Z,1.80
2022-12-25T23:06:40.239Z,1.60
2022-12-25T23:09:08.317Z,1.60
2022-12-25T23:11:36.197Z,1.63
2022-12-25T23:14:21.359Z,1.90
2022-12-25T23:16:47.955Z,2.10
2022-12-25T23:19:32.915Z,2.28
2022-12-25T23:22:28.521Z,2.63
2022-12-25T23:25:13.819Z,2.80
2022-12-25T23:27:40.652Z,3.00
2022-12-25T23:30:11.975Z,2.85
2022-12-25T23:32:38.789Z,2.70
2022-12-25T23:35:05.829Z,2.28
2022-12-25T23:37:32.297Z,2.38
2022-12-25T23:39:58.780Z,2.20
2022-12-25T23:42:25.350Z,2.00
2022-12-25T23:44:51.865Z,1.90
2022-12-25T23:47:18.372Z,1.75
2022-12-25T23:49:44.834Z,1.60
2022-12-25T23:52:12.929Z,2.00
2022-12-25T23:54:39.507Z,1.90
2022-12-25T23:57:06.061Z,2.20
2022-12-25T23:59:32.588Z,1.83
